Time;durP1;ratioP1;P1;durP2;ratioP2;P2;SDS_P1;SDS_P2;PMS_P1;PMS_P2;Temp;Humidity;BMP_temperature;BMP_pressure;BME280_temperature;BME280_humidity;BME280_pressure;Samples;Min_cycle;Max_cycle;Signal;HPM_P1;HPM_P2
2022/09/18 00:01:48;;;;;;;23.08;7.97;;;9.30;99.90;;;8.26;100.00;97401.78;5032242;28;20414;-74
2022/09/18 00:04:14;;;;;;;22.70;8.85;;;9.30;99.90;;;8.24;100.00;97403.03;5031930;28;20427;-75
2022/09/18 00:06:43;;;;;;;25.10;9.40;;;9.30;99.90;;;8.34;100.00;97405.91;5032422;28;20906;-74
2022/09/18 00:09:13;;;;;;;17.92;8.23;;;9.30;99.90;;;8.28;100.00;97417.34;5032259;28;20403;-74
2022/09/18 00:11:42;;;;;;;20.67;8.00;;;9.30;99.90;;;8.34;100.00;97411.97;5032225;28;20438;-74
2022/09/18 00:14:12;;;;;;;19.50;9.15;;;9.40;99.90;;;8.30;100.00;97410.00;5031546;28;20464;-75
2022/09/18 00:16:39;;;;;;;21.42;8.48;;;9.40;99.90;;;8.26;100.00;97408.88;5032174;28;20478;-75
2022/09/18 00:19:05;;;;;;;24.17;9.18;;;9.30;99.90;;;8.23;100.00;97406.72;5032126;28;20410;-74
2022/09/18 00:21:31;;;;;;;21.80;9.05;;;9.30;99.90;;;8.29;100.00;97411.03;5032175;28;20404;-74
2022/09/18 00:24:00;;;;;;;22.17;9.40;;;9.30;99.90;;;8.30;100.00;97410.00;5031420;28;20448;-74
2022/09/18 00:26:27;;;;;;;19.05;9.70;;;9.30;99.90;;;8.16;100.00;97412.94;5031989;28;20414;-75
2022/09/18 00:28:54;;;;;;;24.42;10.25;;;9.20;99.90;;;8.15;100.00;97407.88;5031951;28;20431;-75
2022/09/18 00:31:26;;;;;;;16.35;9.30;;;9.20;99.90;;;8.19;100.00;97409.03;5031943;28;20426;-74
2022/09/18 00:33:53;;;;;;;25.17;9.48;;;9.20;99.90;;;8.32;100.00;97413.25;5031449;28;20406;-74
2022/09/18 00:36:19;;;;;;;25.52;10.27;;;9.30;99.90;;;8.28;100.00;97412.06;5030626;28;20500;-74
2022/09/18 00:38:46;;;;;;;21.48;10.68;;;9.30;99.90;;;8.23;100.00;97414.63;5031796;28;20438;-74
2022/09/18 00:41:17;;;;;;;22.08;10.00;;;9.30;99.90;;;8.21;100.00;97417.47;5031753;28;20939;-74
2022/09/18 00:43:43;;;;;;;21.73;10.70;;;9.20;99.90;;;8.28;100.00;97412.88;5031035;28;20419;-74
2022/09/18 00:46:23;;;;;;;28.05;9.98;;;9.30;99.90;;;8.26;100.00;97409.69;5030999;28;20395;-72
2022/09/18 00:49:01;;;;;;;20.63;9.40;;;9.30;99.90;;;8.38;100.00;97407.03;5031518;28;20399;-74
2022/09/18 00:51:30;;;;;;;22.02;9.63;;;9.40;99.90;;;8.33;100.00;97409.56;5031484;28;20392;-75
2022/09/18 00:54:05;;;;;;;15.65;8.88;;;9.40;99.90;;;8.31;100.00;97414.28;5030981;28;20403;-73
2022/09/18 00:56:33;;;;;;;19.63;9.00;;;9.30;99.90;;;8.33;100.00;97410.38;5031459;28;20793;-74
2022/09/18 00:58:59;;;;;;;21.65;9.85;;;9.30;99.90;;;8.26;100.00;97419.44;5031412;28;20475;-74
2022/09/18 01:01:25;;;;;;;20.05;9.55;;;9.30;99.90;;;8.29;100.00;97411.03;5031382;28;20403;-74
2022/09/18 01:03:51;;;;;;;19.13;8.10;;;9.30;99.90;;;8.34;100.00;97416.47;5030606;28;20897;-74
2022/09/18 01:06:30;;;;;;;19.60;9.33;;;9.30;99.90;;;8.26;100.00;97414.16;5031341;28;20399;-74
2022/09/18 01:09:09;;;;;;;23.10;8.40;;;9.30;99.90;;;8.28;100.00;97409.44;5031108;28;20396;-74
2022/09/18 01:11:48;;;;;;;22.25;8.65;;;9.30;99.90;;;8.31;100.00;97416.91;5032961;28;20422;-74
2022/09/18 01:14:28;;;;;;;19.35;8.02;;;9.30;99.90;;;8.32;100.00;97419.31;5030724;28;20407;-73
2022/09/18 01:17:03;;;;;;;17.33;7.60;;;9.30;99.90;;;8.33;100.00;97425.41;5031169;28;20399;-74
2022/09/18 01:20:13;;;;;;;14.82;7.75;;;9.40;99.90;;;8.29;100.00;97425.03;5030950;28;20408;-74
2022/09/18 01:22:59;;;;;;;23.65;8.15;;;9.30;99.90;;;8.27;100.00;97429.72;5030608;28;20415;-74
2022/09/18 01:25:37;;;;;;;22.00;6.70;;;9.30;99.90;;;8.20;100.00;97423.00;5030842;28;20399;-74
2022/09/18 01:28:16;;;;;;;16.50;7.20;;;9.20;99.90;;;8.26;100.00;97424.72;5030943;28;20468;-72
2022/09/18 01:30:47;;;;;;;19.13;6.80;;;9.30;99.90;;;8.20;100.00;97428.25;5029634;28;20403;-74
2022/09/18 01:33:24;;;;;;;16.60;6.22;;;9.30;99.90;;;8.14;100.00;97425.53;5030179;28;20382;-74
2022/09/18 01:35:55;;;;;;;20.15;6.00;;;9.10;99.90;;;8.09;100.00;97422.81;5030772;28;20434;-75
2022/09/18 01:38:28;;;;;;;18.55;6.20;;;9.10;99.90;;;8.19;100.00;97427.50;5030770;28;20431;-75
2022/09/18 01:41:00;;;;;;;24.60;6.20;;;9.20;99.90;;;8.18;100.00;97417.16;5030664;28;20865;-74
2022/09/18 01:43:30;;;;;;;20.33;6.38;;;9.20;99.90;;;8.16;100.00;97415.56;5029955;28;20908;-74
2022/09/18 01:46:03;;;;;;;18.10;6.15;;;9.20;99.90;;;8.12;100.00;97408.34;5030742;28;20399;-74
2022/09/18 01:48:35;;;;;;;16.17;6.00;;;9.20;99.90;;;8.01;100.00;97410.00;5030612;28;20399;-75
2022/09/18 01:51:07;;;;;;;24.65;6.85;;;9.10;99.90;;;8.03;100.00;97410.56;5030585;28;20435;-72
2022/09/18 01:53:39;;;;;;;19.10;7.15;;;9.10;99.90;;;8.05;100.00;97407.69;5030117;28;20404;-75
2022/09/18 01:56:11;;;;;;;19.35;6.18;;;9.10;99.90;;;8.04;100.00;97404.25;5029890;28;20413;-75
2022/09/18 01:58:38;;;;;;;14.90;6.90;;;9.00;99.90;;;8.04;100.00;97406.09;5030435;28;20457;-74
2022/09/18 02:01:11;;;;;;;17.08;7.45;;;9.10;99.90;;;8.10;100.00;97405.16;5030380;28;20488;-75
2022/09/18 02:03:44;;;;;;;21.13;7.43;;;9.10;99.90;;;8.16;100.00;97385.75;5029782;28;20419;-74
2022/09/18 02:06:15;;;;;;;14.25;5.38;;;9.20;99.90;;;8.08;100.00;97391.41;5030341;28;20399;-74
2022/09/18 02:08:46;;;;;;;16.27;6.20;;;9.10;99.90;;;8.12;100.00;97393.31;5030470;28;20407;-75
2022/09/18 02:11:15;;;;;;;15.32;6.32;;;9.20;99.90;;;8.20;100.00;97393.97;5030374;28;20410;-74
2022/09/18 02:13:47;;;;;;;14.38;5.78;;;9.20;99.90;;;8.16;100.00;97396.31;5058937;22;20415;-72
2022/09/18 02:16:21;;;;;;;16.98;7.25;;;9.20;99.90;;;8.13;100.00;97394.94;5068739;28;20862;-72
2022/09/18 02:18:52;;;;;;;18.10;6.32;;;9.20;99.90;;;8.19;100.00;97387.13;5069586;28;20392;-72
2022/09/18 02:21:27;;;;;;;15.30;6.43;;;9.20;99.90;;;8.16;100.00;97386.56;5063089;28;20395;-71
2022/09/18 02:23:59;;;;;;;11.97;5.43;;;9.20;99.90;;;8.09;100.00;97387.72;5039542;28;20417;-72
2022/09/18 02:26:26;;;;;;;13.95;5.93;;;9.10;99.90;;;8.07;100.00;97387.97;5050097;28;20389;-72
2022/09/18 02:28:54;;;;;;;14.60;6.65;;;9.10;99.90;;;8.06;100.00;97381.09;5050202;28;20427;-72
2022/09/18 02:31:20;;;;;;;18.17;6.70;;;9.10;99.90;;;8.07;100.00;97387.97;5050040;28;20405;-71
2022/09/18 02:33:47;;;;;;;15.93;6.30;;;9.10;99.90;;;8.15;100.00;97384.16;5048176;28;20444;-72
2022/09/18 02:36:55;;;;;;;15.05;5.78;;;9.10;99.90;;;8.13;100.00;97381.75;5050036;28;20515;-73
2022/09/18 02:39:43;;;;;;;12.73;6.15;;;9.20;99.90;;;8.23;100.00;97381.16;5048229;28;20782;-73
2022/09/18 02:42:25;;;;;;;17.25;5.60;;;9.20;99.90;;;8.09;100.00;97375.34;5049858;28;20394;-73
2022/09/18 02:44:59;;;;;;;16.35;5.53;;;9.10;99.90;;;8.08;100.00;97380.84;5049663;28;20938;-73
2022/09/18 02:47:40;;;;;;;10.30;5.60;;;9.10;99.90;;;7.98;100.00;97380.66;5050004;28;20467;-72
2022/09/18 02:50:16;;;;;;;16.13;5.68;;;9.00;99.90;;;7.97;100.00;97381.72;5046081;28;20397;-72
2022/09/18 02:52:50;;;;;;;11.48;4.93;;;9.00;99.90;;;7.88;100.00;97383.91;5049444;28;20484;-73
2022/09/18 02:55:22;;;;;;;14.27;5.40;;;8.90;99.90;;;8.05;100.00;97386.59;5049899;28;20397;-72
2022/09/18 02:57:56;;;;;;;10.95;5.20;;;9.00;99.90;;;8.22;100.00;97386.66;5049852;28;20891;-73
2022/09/18 03:00:26;;;;;;;10.48;4.90;;;9.20;99.90;;;8.15;100.00;97392.88;5049805;28;20751;-72
2022/09/18 03:02:57;;;;;;;14.38;4.88;;;9.20;99.90;;;8.19;100.00;97389.78;5049176;28;21126;-72
2022/09/18 03:05:23;;;;;;;14.95;5.00;;;9.20;99.90;;;8.25;100.00;97383.56;5049728;28;20728;-73
2022/09/18 03:07:49;;;;;;;10.73;4.77;;;9.20;99.90;;;8.16;100.00;97383.13;5050347;28;20474;-72
2022/09/18 03:10:15;;;;;;;10.05;4.57;;;9.20;99.90;;;8.26;100.00;97379.88;5053424;28;20409;-72
2022/09/18 03:12:41;;;;;;;12.43;4.93;;;9.30;99.90;;;8.15;100.00;97379.69;5052764;28;20397;-72
2022/09/18 03:15:09;;;;;;;15.77;5.00;;;9.20;99.90;;;7.98;100.00;97370.09;5052537;28;20405;-72
2022/09/18 03:17:37;;;;;;;12.30;5.00;;;9.00;99.90;;;7.95;100.00;97376.66;5051945;28;20814;-72
2022/09/18 03:20:06;;;;;;;8.40;4.90;;;9.00;99.90;;;8.06;100.00;97367.91;5053242;28;20397;-72
2022/09/18 03:22:31;;;;;;;11.70;4.97;;;9.10;99.90;;;8.03;100.00;97367.59;5052977;28;20504;-72
2022/09/18 03:24:57;;;;;;;12.63;5.13;;;9.00;99.90;;;8.04;100.00;97364.69;5052829;28;20492;-72
2022/09/18 03:27:24;;;;;;;12.38;5.07;;;9.10;99.90;;;7.97;100.00;97374.59;5053078;28;20409;-73
2022/09/18 03:29:50;;;;;;;15.48;5.68;;;9.00;99.90;;;8.03;100.00;97365.75;5052979;28;20412;-72
2022/09/18 03:32:16;;;;;;;11.23;5.27;;;9.00;99.90;;;8.07;100.00;97364.25;5052948;28;20397;-72
2022/09/18 03:34:44;;;;;;;14.20;5.68;;;9.10;99.90;;;8.06;100.00;97367.91;5051295;28;21084;-72
2022/09/18 03:37:10;;;;;;;16.02;6.40;;;9.10;99.90;;;8.07;100.00;97360.81;5052902;28;20900;-72
2022/09/18 03:39:36;;;;;;;10.00;5.37;;;9.10;99.90;;;8.03;100.00;97364.97;5052922;28;20409;-73
2022/09/18 03:42:03;;;;;;;11.15;4.97;;;9.00;99.90;;;8.09;100.00;97364.00;5052679;28;20486;-73
2022/09/18 03:44:28;;;;;;;10.93;5.55;;;9.00;99.90;;;8.10;100.00;97365.63;5052228;28;20521;-72
2022/09/18 03:46:54;;;;;;;10.35;5.45;;;9.10;99.90;;;8.06;100.00;97362.63;5052815;28;20547;-73
2022/09/18 03:49:20;;;;;;;10.43;5.30;;;9.10;99.90;;;8.18;100.00;97359.16;5052678;28;20448;-72
2022/09/18 03:51:47;;;;;;;12.30;5.50;;;9.10;99.90;;;8.15;100.00;97363.88;5051396;28;20992;-73
2022/09/18 03:54:14;;;;;;;9.65;4.78;;;9.20;99.90;;;8.13;100.00;97373.03;5052095;28;20398;-72
2022/09/18 03:56:40;;;;;;;11.35;5.50;;;9.10;99.90;;;8.10;100.00;97376.97;5052651;28;20926;-72
2022/09/18 03:59:06;;;;;;;11.70;5.30;;;9.10;99.90;;;8.12;100.00;97377.50;5052469;28;20473;-72
2022/09/18 04:01:32;;;;;;;9.10;5.00;;;9.10;99.90;;;8.12;100.00;97379.34;5052481;28;20409;-73
2022/09/18 04:03:57;;;;;;;12.55;5.57;;;9.10;99.90;;;8.12;100.00;97388.06;5051795;28;20431;-73
2022/09/18 04:06:24;;;;;;;11.73;5.70;;;9.10;99.90;;;8.14;100.00;97393.09;5052337;28;20512;-73
2022/09/18 04:08:52;;;;;;;11.70;6.13;;;9.10;99.90;;;8.05;100.00;97391.84;5052310;28;20431;-72
2022/09/18 04:11:18;;;;;;;9.05;5.50;;;9.10;99.90;;;8.10;100.00;97397.25;5052368;28;20463;-72
2022/09/18 04:13:43;;;;;;;9.13;5.70;;;9.10;99.90;;;8.09;100.00;97398.28;5051610;28;20413;-72
2022/09/18 04:16:09;;;;;;;15.80;6.25;;;9.10;99.90;;;8.18;100.00;97396.06;5050988;28;20406;-72
2022/09/18 04:18:35;;;;;;;11.85;6.05;;;9.20;99.90;;;8.16;100.00;97389.19;5052219;28;20467;-73
2022/09/18 04:21:01;;;;;;;13.00;5.82;;;9.20;99.90;;;8.19;100.00;97392.41;5051182;28;20774;-72
2022/09/18 04:23:27;;;;;;;11.23;5.93;;;9.20;99.90;;;8.13;100.00;97394.13;5051399;28;20417;-72
2022/09/18 04:25:54;;;;;;;12.13;5.97;;;9.20;99.90;;;8.20;100.00;97396.63;5052077;28;20913;-73
2022/09/18 04:28:20;;;;;;;17.73;6.63;;;9.20;99.90;;;8.14;100.00;97388.63;5052085;28;20409;-73
2022/09/18 04:30:46;;;;;;;13.10;6.40;;;9.20;99.90;;;8.11;100.00;97386.47;5051988;28;20543;-72
2022/09/18 04:33:12;;;;;;;12.93;6.22;;;9.20;99.90;;;8.11;100.00;97394.38;5051341;28;20795;-72
2022/09/18 04:35:38;;;;;;;13.65;6.43;;;9.10;99.90;;;8.19;100.00;97395.03;5051855;28;20506;-72
2022/09/18 04:38:04;;;;;;;14.60;6.55;;;9.20;99.90;;;8.12;100.00;97392.53;5051733;28;20860;-71
2022/09/18 04:40:30;;;;;;;16.77;6.75;;;9.10;99.90;;;8.14;100.00;97380.72;5051749;28;20483;-72
2022/09/18 04:42:57;;;;;;;15.80;7.07;;;9.20;99.90;;;8.19;100.00;97387.13;5051015;28;20548;-73
2022/09/18 04:45:23;;;;;;;15.15;7.10;;;9.20;99.90;;;8.17;100.00;97390.00;5051683;28;20794;-72
2022/09/18 04:47:49;;;;;;;13.77;6.53;;;9.20;99.90;;;8.13;100.00;97381.75;5051317;28;20419;-72
2022/09/18 04:50:15;;;;;;;15.13;7.28;;;9.20;99.90;;;8.02;100.00;97379.16;5051514;28;20453;-72
2022/09/18 04:52:42;;;;;;;15.15;7.25;;;9.00;99.90;;;7.97;100.00;97387.75;5051013;28;20405;-72
2022/09/18 04:55:08;;;;;;;10.38;6.03;;;9.00;99.90;;;8.13;100.00;97387.03;5051350;28;20402;-72
2022/09/18 04:57:34;;;;;;;9.85;6.07;;;9.10;99.90;;;8.18;100.00;97391.59;5051531;28;20413;-73
2022/09/18 05:00:02;;;;;;;15.55;6.82;;;9.20;99.90;;;8.13;100.00;97391.50;5051375;28;20488;-72
2022/09/18 05:02:28;;;;;;;11.52;6.20;;;9.20;99.90;;;8.16;100.00;97394.47;5051032;28;20899;-73
2022/09/18 05:04:54;;;;;;;15.55;7.18;;;9.10;99.90;;;8.15;100.00;97394.69;5050921;28;20402;-72
2022/09/18 05:07:20;;;;;;;15.93;6.57;;;9.20;99.90;;;8.05;100.00;97386.59;5051235;28;20522;-72
2022/09/18 05:09:46;;;;;;;11.68;6.20;;;9.10;99.90;;;8.16;100.00;97393.66;5049897;28;20452;-73
2022/09/18 05:12:12;;;;;;;16.33;6.57;;;9.10;99.90;;;8.17;100.00;97395.28;5050965;28;20405;-73
2022/09/18 05:14:37;;;;;;;16.77;7.30;;;9.20;99.90;;;8.11;100.00;97391.75;5050586;28;20437;-72
2022/09/18 05:17:05;;;;;;;15.93;7.40;;;9.20;99.90;;;8.11;100.00;97399.66;5051039;28;20405;-72
2022/09/18 05:19:31;;;;;;;13.30;6.78;;;9.10;99.90;;;8.15;100.00;97400.78;5050926;28;20409;-73
2022/09/18 05:21:56;;;;;;;14.90;7.83;;;9.10;99.90;;;8.10;100.00;97400.69;5032836;28;20775;-72
2022/09/18 05:24:22;;;;;;;14.68;7.30;;;9.10;99.90;;;8.03;100.00;97404.50;5041397;28;20428;-72
2022/09/18 05:26:48;;;;;;;11.65;7.18;;;9.00;99.90;;;8.08;100.00;97409.84;5039049;28;20407;-72
2022/09/18 05:29:14;;;;;;;17.00;7.97;;;9.10;99.90;;;8.09;100.00;97406.19;5037817;28;20901;-73
2022/09/18 05:31:40;;;;;;;14.93;7.60;;;9.10;99.90;;;8.06;100.00;97410.09;5041590;28;20556;-73
2022/09/18 05:34:08;;;;;;;13.57;8.07;;;9.10;99.90;;;8.03;100.00;97407.13;5050091;28;20512;-73
2022/09/18 05:36:34;;;;;;;13.18;8.02;;;9.00;99.90;;;8.04;100.00;97417.41;5050699;28;20408;-72
2022/09/18 05:39:00;;;;;;;17.15;9.00;;;9.10;99.90;;;8.09;100.00;97414.09;5050663;28;21232;-72
2022/09/18 05:41:26;;;;;;;14.07;8.77;;;9.10;99.90;;;8.07;100.00;97411.69;5050622;28;20398;-72
2022/09/18 05:43:52;;;;;;;17.33;8.20;;;9.10;99.90;;;8.14;100.00;97414.19;5049937;28;20416;-72
2022/09/18 05:46:18;;;;;;;14.68;8.88;;;9.10;99.90;;;8.05;100.00;97419.03;5050599;28;20397;-73
2022/09/18 05:48:45;;;;;;;17.13;9.30;;;9.10;99.90;;;8.01;100.00;97428.44;5031078;28;20960;-72
2022/09/18 05:51:13;;;;;;;18.98;9.43;;;9.10;99.90;;;8.04;100.00;97421.91;5032745;28;20435;-72
2022/09/18 05:53:40;;;;;;;16.55;8.88;;;9.10;99.90;;;8.13;100.00;97418.66;5048829;28;20996;-73
2022/09/18 05:56:06;;;;;;;15.73;9.50;;;9.10;99.90;;;8.09;100.00;97424.66;5050412;28;20509;-73
2022/09/18 05:58:32;;;;;;;17.23;9.27;;;9.10;99.90;;;8.07;100.00;97419.59;5050385;28;20424;-74
2022/09/18 06:01:00;;;;;;;14.45;8.25;;;9.10;99.90;;;8.23;100.00;97427.81;5049077;28;20911;-75
2022/09/18 06:03:26;;;;;;;12.95;7.75;;;9.20;99.90;;;8.10;100.00;97434.97;5034775;28;20925;-73
2022/09/18 06:05:53;;;;;;;18.77;8.60;;;9.10;99.90;;;8.07;100.00;97432.78;5031649;28;20986;-73
2022/09/18 06:08:21;;;;;;;22.58;9.35;;;9.10;99.90;;;8.14;100.00;97432.66;5030112;28;20394;-72
2022/09/18 06:10:47;;;;;;;21.25;9.80;;;9.20;99.90;;;8.16;100.00;97427.94;5030329;28;20478;-73
2022/09/18 06:13:15;;;;;;;14.75;9.60;;;9.20;99.90;;;8.10;100.00;97437.59;5028781;28;20411;-73
2022/09/18 06:15:44;;;;;;;20.45;10.25;;;9.20;99.90;;;8.13;100.00;97434.47;5031494;28;20402;-72
2022/09/18 06:18:13;;;;;;;16.60;8.95;;;9.20;99.90;;;8.16;100.00;97431.38;5033258;28;20402;-71
2022/09/18 06:20:39;;;;;;;19.25;9.80;;;9.20;99.90;;;8.13;100.00;97429.22;5027609;28;20418;-71
2022/09/18 06:23:05;;;;;;;20.75;10.52;;;9.20;99.90;;;8.15;100.00;97431.63;5029611;28;20691;-71
2022/09/18 06:25:32;;;;;;;13.87;8.37;;;9.20;99.90;;;8.23;100.00;97435.72;5029558;28;20411;-71
2022/09/18 06:27:59;;;;;;;18.02;9.25;;;9.20;99.90;;;8.13;100.00;97442.38;5030073;28;20395;-72
2022/09/18 06:30:26;;;;;;;15.90;9.23;;;9.20;99.90;;;8.16;100.00;97441.13;5029465;28;20459;-73
2022/09/18 06:32:53;;;;;;;17.63;9.33;;;9.20;99.90;;;8.13;100.00;97447.66;5029580;28;20414;-70
2022/09/18 06:35:19;;;;;;;20.65;10.35;;;9.20;99.90;;;8.14;100.00;97445.81;5030057;28;20395;-72
2022/09/18 06:37:44;;;;;;;21.65;10.73;;;9.20;99.90;;;8.16;100.00;97447.22;5030138;28;20765;-71
2022/09/18 06:40:11;;;;;;;20.80;10.25;;;9.20;99.90;;;8.20;100.00;97447.53;5034906;28;20490;-72
2022/09/18 06:42:38;;;;;;;16.77;9.68;;;9.20;99.90;;;8.35;100.00;97449.69;5048576;22;20431;-71
2022/09/18 06:45:06;;;;;;;17.23;10.98;;;9.30;99.90;;;8.31;100.00;97452.00;5072225;28;20413;-71
2022/09/18 06:47:31;;;;;;;23.15;10.02;;;9.40;99.90;;;8.30;100.00;97445.09;5073787;28;20453;-71
2022/09/18 06:49:57;;;;;;;23.13;10.48;;;9.30;99.90;;;8.28;100.00;97446.34;5073732;28;20412;-71
2022/09/18 06:52:23;;;;;;;22.80;10.93;;;9.30;99.90;;;8.30;100.00;97441.66;5073544;28;20450;-71
2022/09/18 06:54:49;;;;;;;27.43;10.33;;;9.30;99.90;;;8.31;100.00;97440.66;5073275;28;20459;-71
2022/09/18 06:57:15;;;;;;;15.63;9.00;;;9.30;99.90;;;8.41;100.00;97441.66;5073138;28;20465;-71
2022/09/18 06:59:42;;;;;;;25.13;10.98;;;9.40;99.90;;;8.34;100.00;97437.56;5057113;28;20454;-71
2022/09/18 07:02:12;;;;;;;14.82;8.85;;;9.30;99.90;;;8.42;100.00;97435.31;5053450;28;20891;-71
2022/09/18 07:04:38;;;;;;;28.02;11.40;;;9.40;99.90;;;8.32;100.00;97439.63;5052985;28;20848;-71
2022/09/18 07:07:05;;;;;;;21.73;11.73;;;9.40;99.90;;;8.34;100.00;97432.28;5053463;28;20401;-71
2022/09/18 07:09:31;;;;;;;20.58;10.60;;;9.30;99.90;;;8.33;100.00;97436.75;5053443;28;20940;-72
2022/09/18 07:11:57;;;;;;;24.70;12.47;;;9.30;99.90;;;8.31;100.00;97436.19;5058177;28;20501;-71
2022/09/18 07:14:23;;;;;;;25.27;11.15;;;9.40;99.90;;;8.37;100.00;97440.50;5059678;28;20457;-71
2022/09/18 07:16:50;;;;;;;27.60;11.93;;;9.40;99.90;;;8.48;100.00;97430.97;5070982;28;20486;-71
2022/09/18 07:19:16;;;;;;;22.85;12.30;;;9.50;99.90;;;8.47;100.00;97429.34;5067412;28;20841;-71
2022/09/18 07:21:42;;;;;;;24.20;11.77;;;9.50;99.90;;;8.53;100.00;97428.41;5071771;28;20404;-72
2022/09/18 07:24:08;;;;;;;20.37;9.00;;;9.50;99.90;;;8.44;100.00;97435.09;5061150;28;20898;-72
2022/09/18 07:26:34;;;;;;;30.88;10.82;;;9.40;99.90;;;8.49;100.00;97435.97;5062445;28;20796;-71
2022/09/18 07:29:00;;;;;;;19.85;9.77;;;9.50;99.90;;;8.60;100.00;97431.69;5061734;28;20496;-71
2022/09/18 07:31:37;;;;;;;18.30;9.25;;;9.60;99.90;;;8.67;100.00;97445.53;5063144;28;20490;-73
2022/09/18 07:34:06;;;;;;;16.58;8.07;;;9.60;99.90;;;8.68;100.00;97448.97;5064524;28;20400;-73
2022/09/18 07:36:31;;;;;;;18.75;8.90;;;9.60;99.90;;;8.66;100.00;97449.22;5076488;28;20400;-72
2022/09/18 07:38:58;;;;;;;16.20;9.20;;;9.70;99.90;;;8.69;100.00;97445.31;5076364;28;20423;-73
2022/09/18 07:41:23;;;;;;;11.73;6.45;;;9.70;99.90;;;8.90;100.00;97460.44;5060110;28;20409;-72
2022/09/18 07:43:50;;;;;;;19.13;8.43;;;9.70;99.90;;;8.90;100.00;97457.81;5058633;28;20417;-72
2022/09/18 07:46:16;;;;;;;17.15;7.70;;;9.90;99.90;;;9.02;100.00;97455.13;5061989;28;20434;-72
2022/09/18 07:48:43;;;;;;;13.43;6.63;;;10.00;99.90;;;9.00;100.00;97452.72;5073911;28;20410;-73
2022/09/18 07:51:10;;;;;;;13.30;6.67;;;9.90;99.90;;;8.92;100.00;97466.31;5065794;28;20400;-70
2022/09/18 07:53:36;;;;;;;11.88;5.53;;;9.90;99.90;;;8.93;100.00;97467.91;5063058;28;20808;-70
2022/09/18 07:56:07;;;;;;;14.53;5.77;;;9.80;99.90;;;9.00;100.00;97468.56;5056568;28;20412;-70
2022/09/18 07:58:33;;;;;;;12.45;6.60;;;10.00;99.90;;;9.00;100.00;97467.75;5068583;28;20414;-70
2022/09/18 08:01:03;;;;;;;16.37;7.27;;;10.00;99.90;;;9.02;100.00;97471.75;5072496;28;20449;-70
2022/09/18 08:03:29;;;;;;;14.27;5.70;;;10.00;99.90;;;9.08;100.00;97472.66;5071636;28;20946;-71
2022/09/18 08:05:55;;;;;;;12.88;5.40;;;10.00;99.90;;;9.03;100.00;97470.69;5079893;28;20404;-71
2022/09/18 08:08:23;;;;;;;10.27;5.55;;;10.00;99.90;;;9.18;100.00;97478.88;5061063;28;20893;-73
2022/09/18 08:10:49;;;;;;;12.98;4.65;;;10.10;99.90;;;9.05;100.00;97479.19;5085702;28;20394;-73
2022/09/18 08:13:15;;;;;;;9.95;4.50;;;10.00;99.90;;;9.17;100.00;97481.78;5097001;22;20904;-76
2022/09/18 08:15:42;;;;;;;11.18;5.20;;;10.00;99.90;;;9.25;100.00;97486.63;5081789;28;20394;-76
2022/09/18 08:18:12;;;;;;;11.88;5.15;;;10.10;99.90;;;9.28;100.00;97494.09;5088166;28;20813;-75
2022/09/18 08:20:38;;;;;;;11.40;4.80;;;10.20;99.90;;;9.28;100.00;97476.41;5063998;28;20422;-75
2022/09/18 08:23:08;;;;;;;13.60;4.22;;;10.20;99.90;;;9.15;100.00;97489.13;5070176;28;20450;-77
2022/09/18 08:25:36;;;;;;;11.77;4.57;;;10.10;99.90;;;9.18;100.00;97489.44;5070918;28;20768;-77
2022/09/18 08:28:04;;;;;;;12.95;4.80;;;10.20;99.90;;;9.27;100.00;97493.28;5070582;28;20912;-76
2022/09/18 08:30:30;;;;;;;11.60;4.45;;;10.20;99.90;;;9.29;100.00;97479.84;5070990;28;20415;-88
2022/09/18 08:33:00;;;;;;;9.20;4.55;;;10.20;99.90;;;9.25;100.00;97495.38;5078380;28;20411;-76
2022/09/18 08:35:27;;;;;;;8.93;4.53;;;10.20;99.90;;;9.34;100.00;97501.06;5088302;28;20463;-77
2022/09/18 08:37:54;;;;;;;9.88;4.00;;;10.30;99.90;;;9.45;100.00;97488.81;5090765;28;20416;-80
2022/09/18 08:40:35;;;;;;;9.00;4.25;;;10.30;99.90;;;9.48;100.00;97485.69;5090539;28;20883;-76
2022/09/18 08:43:12;;;;;;;9.10;4.03;;;10.40;99.90;;;9.55;100.00;97483.66;5060324;28;20493;-77
2022/09/18 08:45:51;;;;;;;9.75;3.72;;;10.50;99.90;;;9.58;100.00;97491.13;5069044;28;20412;-75
2022/09/18 08:48:23;;;;;;;10.63;3.65;;;10.50;99.90;;;9.44;100.00;97487.22;5067586;28;20419;-76
2022/09/18 08:50:57;;;;;;;8.13;3.50;;;10.40;99.90;;;9.45;100.00;97481.69;5058546;28;20769;-76
2022/09/18 08:53:32;;;;;;;12.63;4.03;;;10.40;99.90;;;9.63;100.00;97486.72;5063632;28;20400;-76
2022/09/18 08:56:00;;;;;;;9.82;3.70;;;10.60;99.90;;;9.65;100.00;97483.81;5066845;28;20494;-77
2022/09/18 08:58:34;;;;;;;10.68;3.88;;;10.60;99.90;;;9.81;100.00;97484.84;5070210;28;20967;-76
2022/09/18 09:01:06;;;;;;;11.57;4.37;;;10.60;99.90;;;9.83;100.00;97486.22;5070190;28;20456;-76
2022/09/18 09:03:48;;;;;;;14.10;3.83;;;10.80;99.90;;;9.70;100.00;97483.91;5055508;28;20467;-77
2022/09/18 09:06:36;;;;;;;12.82;3.95;;;10.60;99.90;;;9.68;100.00;97493.94;5050199;28;20463;-76
2022/09/18 09:09:28;;;;;;;6.80;4.10;;;10.60;99.90;;;9.64;100.00;97485.66;5062534;28;21067;-76
2022/09/18 09:12:08;;;;;;;10.05;4.30;;;10.60;99.90;;;9.59;100.00;97492.72;5061363;28;20454;-76
2022/09/18 09:15:00;;;;;;;10.07;4.35;;;10.60;99.90;;;9.60;100.00;97487.22;5066988;28;20411;-76
2022/09/18 09:17:39;;;;;;;8.60;4.32;;;10.50;99.90;;;9.76;100.00;97485.59;5079143;28;20423;-78
2022/09/18 09:20:19;;;;;;;9.40;3.90;;;10.60;99.90;;;9.87;100.00;97483.88;5069677;28;20778;-78
2022/09/18 09:23:00;;;;;;;13.38;3.78;;;10.70;99.90;;;9.81;100.00;97493.59;5054413;28;20384;-88
2022/09/18 09:25:37;;;;;;;12.48;4.40;;;10.80;99.90;;;9.88;100.00;97491.56;5060177;28;20392;-82
2022/09/18 09:28:13;;;;;;;15.05;5.25;;;10.80;99.90;;;9.79;100.00;97490.38;5058149;28;20398;-81
2022/09/18 09:30:43;;;;;;;11.32;4.47;;;10.70;99.90;;;9.73;100.00;97487.91;5058132;28;20409;-83
2022/09/18 09:33:21;;;;;;;10.88;3.83;;;10.70;99.90;;;9.90;100.00;97484.19;5060758;28;20434;-82
2022/09/18 09:35:53;;;;;;;10.65;3.50;;;10.80;99.90;;;9.86;100.00;97477.78;5061864;28;20967;-79
2022/09/18 09:38:44;;;;;;;9.43;2.90;;;10.80;99.90;;;9.78;100.00;97474.75;5062171;28;20451;-80
2022/09/18 09:41:19;;;;;;;10.43;3.22;;;10.70;99.90;;;9.92;100.00;97487.38;5059069;28;20758;-79
2022/09/18 09:43:55;;;;;;;7.32;2.92;;;10.80;99.90;;;9.99;100.00;97481.94;5057502;28;20417;-79
2022/09/18 09:46:50;;;;;;;12.93;3.22;;;10.80;99.90;;;9.83;100.00;97478.28;5060290;28;20401;-79
2022/09/18 09:49:22;;;;;;;10.15;3.05;;;10.70;99.90;;;9.88;100.00;97482.81;5049301;28;20397;-79
2022/09/18 09:51:59;;;;;;;12.82;3.10;;;10.70;99.90;;;9.96;100.00;97472.63;5052911;28;20397;-80
2022/09/18 09:54:25;;;;;;;7.60;2.60;;;10.80;99.90;;;10.11;100.00;97474.69;5057652;28;20990;-89
2022/09/18 09:56:57;;;;;;;11.07;2.72;;;10.90;99.90;;;10.08;100.00;97472.50;5059015;28;20406;-78
2022/09/18 09:59:31;;;;;;;9.57;2.78;;;10.90;99.90;;;10.28;100.00;97464.88;5059255;28;20480;-80
2022/09/18 10:02:22;;;;;;;11.77;3.00;;;11.10;99.90;;;10.35;100.00;97465.47;5059811;28;20506;-81
2022/09/18 10:04:57;;;;;;;9.07;2.60;;;11.20;99.90;;;10.30;100.00;97464.63;5057657;28;20419;-85
2022/09/18 10:07:29;;;;;;;11.18;2.80;;;11.10;99.90;;;10.63;100.00;97472.41;5054337;28;20414;-75
2022/09/18 10:10:02;;;;;;;10.70;2.22;;;11.50;99.90;;;10.78;100.00;97469.91;5060368;28;20419;-76
2022/09/18 10:12:38;;;;;;;10.32;2.13;;;11.60;99.90;;;10.92;100.00;97469.50;5060406;28;20396;-86
2022/09/18 10:15:17;;;;;;;6.93;2.20;;;11.70;99.90;;;11.24;100.00;97467.66;5063000;28;20385;-77
2022/09/18 10:17:46;;;;;;;10.60;2.20;;;12.00;99.90;;;11.29;100.00;97467.69;5059907;28;20396;-82
2022/09/18 10:20:16;;;;;;;7.65;2.17;;;12.10;99.90;;;11.13;100.00;97471.28;5059450;28;20409;-76
2022/09/18 10:22:45;;;;;;;12.20;2.15;;;12.00;99.90;;;10.99;100.00;97465.59;5069060;28;20411;-78
2022/09/18 10:25:19;;;;;;;6.60;2.05;;;11.90;99.90;;;11.05;100.00;97467.22;5058732;28;20404;-76
2022/09/18 10:27:46;;;;;;;8.25;2.08;;;11.80;99.90;;;11.03;100.00;97472.00;5063414;28;20393;-75
2022/09/18 10:30:13;;;;;;;5.95;1.85;;;11.80;99.90;;;11.15;100.00;97471.81;5067148;28;20400;-77